sensor_id;sensor_type;location;lat;lon;timestamp;pressure;altitude;pressure_sealevel;temperature;humidity
69751;BME280;57335;52.288;6.056;2024-03-06T00:02:21;101801.81;;;6.84;100.00
69751;BME280;57335;52.288;6.056;2024-03-06T00:04:47;101806.88;;;6.86;100.00
69751;BME280;57335;52.288;6.056;2024-03-06T00:07:14;101806.69;;;6.87;100.00
69751;BME280;57335;52.288;6.056;2024-03-06T00:09:41;101814.88;;;6.92;100.00
69751;BME280;57335;52.288;6.056;2024-03-06T00:12:07;101813.88;;;6.93;100.00
69751;BME280;57335;52.288;6.056;2024-03-06T00:14:35;101820.06;;;6.92;100.00
69751;BME280;57335;52.288;6.056;2024-03-06T00:17:03;101824.97;;;6.95;100.00
69751;BME280;57335;52.288;6.056;2024-03-06T00:19:34;101828.22;;;6.97;100.00
69751;BME280;57335;52.288;6.056;2024-03-06T00:22:00;101820.41;;;6.97;100.00
69751;BME280;57335;52.288;6.056;2024-03-06T00:24:28;101819.44;;;6.98;100.00
69751;BME280;57335;52.288;6.056;2024-03-06T00:26:54;101822.06;;;6.98;100.00
69751;BME280;57335;52.288;6.056;2024-03-06T00:29:21;101826.28;;;6.99;100.00
69751;BME280;57335;52.288;6.056;2024-03-06T00:31:47;101834.09;;;6.99;100.00
69751;BME280;57335;52.288;6.056;2024-03-06T00:34:14;101828.88;;;6.99;100.00
69751;BME280;57335;52.288;6.056;2024-03-06T00:36:42;101841.63;;;7.03;100.00
69751;BME280;57335;52.288;6.056;2024-03-06T00:39:10;101831.34;;;7.01;100.00
69751;BME280;57335;52.288;6.056;2024-03-06T00:41:36;101831.19;;;7.03;100.00
69751;BME280;57335;52.288;6.056;2024-03-06T00:44:03;101826.97;;;7.02;100.00
69751;BME280;57335;52.288;6.056;2024-03-06T00:46:30;101836.53;;;7.01;100.00
69751;BME280;57335;52.288;6.056;2024-03-06T00:48:57;101834.78;;;7.02;100.00
69751;BME280;57335;52.288;6.056;2024-03-06T00:51:23;101841.75;;;7.01;100.00
69751;BME280;57335;52.288;6.056;2024-03-06T00:54:06;101838.34;;;7.01;100.00
69751;BME280;57335;52.288;6.056;2024-03-06T00:56:33;101841.91;;;6.99;100.00
69751;BME280;57335;52.288;6.056;2024-03-06T00:59:03;101842.91;;;6.98;100.00
69751;BME280;57335;52.288;6.056;2024-03-06T01:01:29;101847.13;;;6.99;100.00
69751;BME280;57335;52.288;6.056;2024-03-06T01:03:56;101851.69;;;6.97;100.00
69751;BME280;57335;52.288;6.056;2024-03-06T01:06:22;101843.56;;;7.01;100.00
69751;BME280;57335;52.288;6.056;2024-03-06T01:08:49;101848.78;;;7.01;100.00
69751;BME280;57335;52.288;6.056;2024-03-06T01:11:15;101855.94;;;6.98;100.00
69751;BME280;57335;52.288;6.056;2024-03-06T01:13:42;101854.28;;;6.97;100.00
69751;BME280;57335;52.288;6.056;2024-03-06T01:16:09;101859.50;;;6.97;100.00
69751;BME280;57335;52.288;6.056;2024-03-06T01:18:36;101856.09;;;6.97;100.00
69751;BME280;57335;52.288;6.056;2024-03-06T01:21:02;101861.28;;;6.97;100.00
69751;BME280;57335;52.288;6.056;2024-03-06T01:23:30;101868.31;;;6.96;100.00
69751;BME280;57335;52.288;6.056;2024-03-06T01:25:56;101875.13;;;6.97;100.00
69751;BME280;57335;52.288;6.056;2024-03-06T01:28:23;101874.19;;;6.98;100.00
69751;BME280;57335;52.288;6.056;2024-03-06T01:30:49;101880.34;;;6.97;100.00
69751;BME280;57335;52.288;6.056;2024-03-06T01:33:16;101864.72;;;6.97;100.00
69751;BME280;57335;52.288;6.056;2024-03-06T01:35:42;101873.50;;;6.96;100.00
69751;BME280;57335;52.288;6.056;2024-03-06T01:38:09;101879.88;;;6.94;100.00
69751;BME280;57335;52.288;6.056;2024-03-06T01:40:37;101873.16;;;6.91;100.00
69751;BME280;57335;52.288;6.056;2024-03-06T01:43:04;101876.09;;;6.88;100.00
69751;BME280;57335;52.288;6.056;2024-03-06T01:45:31;101882.09;;;6.89;100.00
69751;BME280;57335;52.288;6.056;2024-03-06T01:47:59;101881.44;;;6.87;100.00
69751;BME280;57335;52.288;6.056;2024-03-06T01:50:25;101881.31;;;6.88;100.00
69751;BME280;57335;52.288;6.056;2024-03-06T01:52:52;101884.56;;;6.90;100.00
69751;BME280;57335;52.288;6.056;2024-03-06T01:55:19;101883.56;;;6.91;100.00
69751;BME280;57335;52.288;6.056;2024-03-06T01:57:46;101881.81;;;6.92;100.00
69751;BME280;57335;52.288;6.056;2024-03-06T02:00:12;101878.38;;;6.91;100.00
69751;BME280;57335;52.288;6.056;2024-03-06T02:02:42;101882.47;;;6.94;100.00
69751;BME280;57335;52.288;6.056;2024-03-06T02:05:09;101886.84;;;6.93;100.00
69751;BME280;57335;52.288;6.056;2024-03-06T02:07:38;101888.34;;;6.96;100.00
69751;BME280;57335;52.288;6.056;2024-03-06T02:10:07;101890.09;;;6.95;100.00
69751;BME280;57335;52.288;6.056;2024-03-06T02:12:36;101890.78;;;6.97;100.00
69751;BME280;57335;52.288;6.056;2024-03-06T02:15:04;101903.66;;;6.99;100.00
69751;BME280;57335;52.288;6.056;2024-03-06T02:17:30;101900.25;;;6.98;100.00
69751;BME280;57335;52.288;6.056;2024-03-06T02:19:57;101906.91;;;7.01;100.00
69751;BME280;57335;52.288;6.056;2024-03-06T02:22:25;101901.72;;;7.01;100.00
69751;BME280;57335;52.288;6.056;2024-03-06T02:24:51;101906.63;;;7.04;100.00
69751;BME280;57335;52.288;6.056;2024-03-06T02:27:18;101907.75;;;7.02;100.00
69751;BME280;57335;52.288;6.056;2024-03-06T02:29:44;101910.50;;;7.00;100.00
69751;BME280;57335;52.288;6.056;2024-03-06T02:32:14;101911.47;;;6.99;100.00
69751;BME280;57335;52.288;6.056;2024-03-06T02:34:41;101907.06;;;6.99;100.00
69751;BME280;57335;52.288;6.056;2024-03-06T02:37:08;101900.25;;;6.98;100.00
69751;BME280;57335;52.288;6.056;2024-03-06T02:39:34;101904.47;;;6.99;100.00
69751;BME280;57335;52.288;6.056;2024-03-06T02:42:01;101905.31;;;7.00;100.00
69751;BME280;57335;52.288;6.056;2024-03-06T02:44:28;101904.47;;;6.99;100.00
69751;BME280;57335;52.288;6.056;2024-03-06T02:46:54;101899.72;;;6.95;100.00
69751;BME280;57335;52.288;6.056;2024-03-06T02:49:21;101903.47;;;6.92;100.00
69751;BME280;57335;52.288;6.056;2024-03-06T02:51:48;101906.72;;;6.94;100.00
69751;BME280;57335;52.288;6.056;2024-03-06T02:54:14;101907.69;;;6.93;100.00
69751;BME280;57335;52.288;6.056;2024-03-06T02:56:41;101913.56;;;6.95;100.00
69751;BME280;57335;52.288;6.056;2024-03-06T02:59:07;101914.22;;;6.97;100.00
69751;BME280;57335;52.288;6.056;2024-03-06T03:01:34;101914.41;;;6.96;100.00
69751;BME280;57335;52.288;6.056;2024-03-06T03:04:01;101913.41;;;6.97;100.00
69751;BME280;57335;52.288;6.056;2024-03-06T03:06:28;101910.81;;;6.97;100.00
69751;BME280;57335;52.288;6.056;2024-03-06T03:08:55;101922.03;;;6.97;100.00
69751;BME280;57335;52.288;6.056;2024-03-06T03:11:22;101924.66;;;6.97;100.00
69751;BME280;57335;52.288;6.056;2024-03-06T03:13:49;101918.63;;;6.97;100.00
69751;BME280;57335;52.288;6.056;2024-03-06T03:16:19;101922.66;;;6.91;100.00
69751;BME280;57335;52.288;6.056;2024-03-06T03:18:47;101922.66;;;6.91;100.00
69751;BME280;57335;52.288;6.056;2024-03-06T03:21:16;101926.25;;;6.90;100.00
69751;BME280;57335;52.288;6.056;2024-03-06T03:23:43;101916.97;;;6.88;100.00
69751;BME280;57335;52.288;6.056;2024-03-06T03:26:10;101924.78;;;6.88;100.00
69751;BME280;57335;52.288;6.056;2024-03-06T03:28:39;101930.81;;;6.88;100.00
69751;BME280;57335;52.288;6.056;2024-03-06T03:31:07;101925.75;;;6.87;100.00
69751;BME280;57335;52.288;6.056;2024-03-06T03:33:41;101931.09;;;6.85;100.00
69751;BME280;57335;52.288;6.056;2024-03-06T03:36:08;101930.44;;;6.83;100.00
69751;BME280;57335;52.288;6.056;2024-03-06T03:38:37;101930.63;;;6.82;100.00
69751;BME280;57335;52.288;6.056;2024-03-06T03:41:09;101932.56;;;6.79;100.00
69751;BME280;57335;52.288;6.056;2024-03-06T03:43:36;101931.44;;;6.82;100.00
69751;BME280;57335;52.288;6.056;2024-03-06T03:46:03;101932.38;;;6.81;100.00
69751;BME280;57335;52.288;6.056;2024-03-06T03:48:31;101932.56;;;6.79;100.00
69751;BME280;57335;52.288;6.056;2024-03-06T03:50:58;101933.50;;;6.78;100.00
69751;BME280;57335;52.288;6.056;2024-03-06T03:53:24;101935.31;;;6.78;100.00
69751;BME280;57335;52.288;6.056;2024-03-06T03:55:51;101935.97;;;6.80;100.00
69751;BME280;57335;52.288;6.056;2024-03-06T03:58:17;101924.75;;;6.79;100.00
69751;BME280;57335;52.288;6.056;2024-03-06T04:00:44;101938.44;;;6.82;100.00
69751;BME280;57335;52.288;6.056;2024-03-06T04:03:11;101937.59;;;6.81;100.00
69751;BME280;57335;52.288;6.056;2024-03-06T04:05:37;101929.97;;;6.79;100.00
69751;BME280;57335;52.288;6.056;2024-03-06T04:08:04;101934.94;;;6.73;100.00
69751;BME280;57335;52.288;6.056;2024-03-06T04:10:33;101925.13;;;6.67;100.00
69751;BME280;57335;52.288;6.056;2024-03-06T04:13:00;101928.34;;;6.61;100.00
69751;BME280;57335;52.288;6.056;2024-03-06T04:15:26;101936.94;;;6.53;100.00
69751;BME280;57335;52.288;6.056;2024-03-06T04:17:53;101932.66;;;6.44;100.00
69751;BME280;57335;52.288;6.056;2024-03-06T04:20:19;101936.44;;;6.31;100.00
69751;BME280;57335;52.288;6.056;2024-03-06T04:22:46;101938.47;;;6.19;100.00
69751;BME280;57335;52.288;6.056;2024-03-06T04:25:14;101939.81;;;6.06;100.00
69751;BME280;57335;52.288;6.056;2024-03-06T04:27:41;101945.44;;;6.01;100.00
69751;BME280;57335;52.288;6.056;2024-03-06T04:30:08;101940.31;;;5.91;100.00
69751;BME280;57335;52.288;6.056;2024-03-06T04:32:34;101945.25;;;5.85;100.00
69751;BME280;57335;52.288;6.056;2024-03-06T04:35:01;101956.25;;;5.78;100.00
69751;BME280;57335;52.288;6.056;2024-03-06T04:37:28;101961.09;;;5.73;100.00
69751;BME280;57335;52.288;6.056;2024-03-06T04:39:56;101952.22;;;5.66;100.00
69751;BME280;57335;52.288;6.056;2024-03-06T04:42:22;101958.28;;;5.57;100.00
69751;BME280;57335;52.288;6.056;2024-03-06T04:44:49;101962.34;;;5.42;100.00
69751;BME280;57335;52.288;6.056;2024-03-06T04:47:16;101962.53;;;5.30;100.00
69751;BME280;57335;52.288;6.056;2024-03-06T04:49:43;101956.25;;;5.23;100.00
69751;BME280;57335;52.288;6.056;2024-03-06T04:52:09;101956.81;;;5.17;100.00
69751;BME280;57335;52.288;6.056;2024-03-06T04:54:36;101963.94;;;5.15;100.00
69751;BME280;57335;52.288;6.056;2024-03-06T04:57:02;101962.59;;;5.11;100.00
69751;BME280;57335;52.288;6.056;2024-03-06T04:59:29;101972.31;;;5.09;100.00
69751;BME280;57335;52.288;6.056;2024-03-06T05:01:56;101974.53;;;5.04;100.00
69751;BME280;57335;52.288;6.056;2024-03-06T05:04:22;101981.66;;;5.02;100.00
69751;BME280;57335;52.288;6.056;2024-03-06T05:07:07;101982.88;;;4.97;100.00
69751;BME280;57335;52.288;6.056;2024-03-06T05:09:51;101988.34;;;4.94;100.00
69751;BME280;57335;52.288;6.056;2024-03-06T05:12:35;101988.78;;;4.90;100.00
69751;BME280;57335;52.288;6.056;2024-03-06T05:15:19;101999.72;;;4.84;100.00
69751;BME280;57335;52.288;6.056;2024-03-06T05:18:04;101994.25;;;4.77;100.00
69751;BME280;57335;52.288;6.056;2024-03-06T05:20:48;101999.59;;;4.75;100.00
69751;BME280;57335;52.288;6.056;2024-03-06T05:23:32;102005.06;;;4.72;100.00
69751;BME280;57335;52.288;6.056;2024-03-06T05:26:16;102006.44;;;4.67;100.00
69751;BME280;57335;52.288;6.056;2024-03-06T05:29:00;102013.97;;;4.60;100.00
69751;BME280;57335;52.288;6.056;2024-03-06T05:31:44;102014.66;;;4.52;100.00
69751;BME280;57335;52.288;6.056;2024-03-06T05:34:28;102011.09;;;4.44;100.00
69751;BME280;57335;52.288;6.056;2024-03-06T05:37:12;102010.56;;;4.40;100.00
69751;BME280;57335;52.288;6.056;2024-03-06T05:39:56;102025.84;;;4.33;100.00
69751;BME280;57335;52.288;6.056;2024-03-06T05:42:41;102029.13;;;4.26;100.00
69751;BME280;57335;52.288;6.056;2024-03-06T05:45:26;102037.69;;;4.16;100.00
69751;BME280;57335;52.288;6.056;2024-03-06T05:48:09;102031.00;;;4.04;100.00
69751;BME280;57335;52.288;6.056;2024-03-06T05:50:54;102029.47;;;3.92;100.00
69751;BME280;57335;52.288;6.056;2024-03-06T05:53:38;102038.59;;;3.86;100.00
69751;BME280;57335;52.288;6.056;2024-03-06T05:56:23;102043.38;;;3.81;100.00
69751;BME280;57335;52.288;6.056;2024-03-06T05:59:07;102055.75;;;3.77;100.00
69751;BME280;57335;52.288;6.056;2024-03-06T06:01:34;102049.31;;;3.72;100.00
69751;BME280;57335;52.288;6.056;2024-03-06T06:04:01;102047.94;;;3.68;100.00
69751;BME280;57335;52.288;6.056;2024-03-06T06:06:32;102053.09;;;3.58;100.00
69751;BME280;57335;52.288;6.056;2024-03-06T06:08:59;102058.91;;;3.50;100.00
69751;BME280;57335;52.288;6.056;2024-03-06T06:11:26;102057.81;;;3.43;100.00
69751;BME280;57335;52.288;6.056;2024-03-06T06:13:52;102064.03;;;3.40;100.00
69751;BME280;57335;52.288;6.056;2024-03-06T06:16:19;102061.03;;;3.35;100.00
69751;BME280;57335;52.288;6.056;2024-03-06T06:18:45;102067.03;;;3.36;100.00
69751;BME280;57335;52.288;6.056;2024-03-06T06:21:12;102074.00;;;3.35;100.00
69751;BME280;57335;52.288;6.056;2024-03-06T06:23:39;102084.59;;;3.32;100.00
69751;BME280;57335;52.288;6.056;2024-03-06T06:26:06;102093.22;;;3.33;100.00
69751;BME280;57335;52.288;6.056;2024-03-06T06:28:32;102102.50;;;3.35;100.00
69751;BME280;57335;52.288;6.056;2024-03-06T06:30:59;102104.81;;;3.38;100.00
69751;BME280;57335;52.288;6.056;2024-03-06T06:33:25;102110.00;;;3.38;100.00
69751;BME280;57335;52.288;6.056;2024-03-06T06:35:52;102112.06;;;3.45;100.00
69751;BME280;57335;52.288;6.056;2024-03-06T06:38:20;102115.25;;;3.48;100.00
69751;BME280;57335;52.288;6.056;2024-03-06T06:40:47;102120.88;;;3.53;100.00
69751;BME280;57335;52.288;6.056;2024-03-06T06:43:13;102126.63;;;3.57;100.00
69751;BME280;57335;52.288;6.056;2024-03-06T06:45:41;102130.47;;;3.63;100.00
69751;BME280;57335;52.288;6.056;2024-03-06T06:48:08;102131.03;;;3.66;100.00
69751;BME280;57335;52.288;6.056;2024-03-06T06:50:35;102132.16;;;3.73;100.00
69751;BME280;57335;52.288;6.056;2024-03-06T06:53:02;102127.41;;;3.78;100.00
69751;BME280;57335;52.288;6.056;2024-03-06T06:55:29;102133.84;;;3.84;100.00
69751;BME280;57335;52.288;6.056;2024-03-06T06:57:55;102139.59;;;3.88;100.00
69751;BME280;57335;52.288;6.056;2024-03-06T07:00:23;102150.97;;;3.96;100.00
69751;BME280;57335;52.288;6.056;2024-03-06T07:02:50;102146.22;;;4.02;100.00
69751;BME280;57335;52.288;6.056;2024-03-06T07:05:18;102143.91;;;4.08;100.00
69751;BME280;57335;52.288;6.056;2024-03-06T07:07:45;102142.44;;;4.15;100.00
69751;BME280;57335;52.288;6.056;2024-03-06T07:10:12;102145.19;;;4.24;100.00
69751;BME280;57335;52.288;6.056;2024-03-06T07:12:38;102151.25;;;4.34;100.00
69751;BME280;57335;52.288;6.056;2024-03-06T07:15:05;102164.22;;;4.34;100.00
69751;BME280;57335;52.288;6.056;2024-03-06T07:17:33;102165.59;;;4.38;100.00
69751;BME280;57335;52.288;6.056;2024-03-06T07:20:00;102170.38;;;4.43;100.00
69751;BME280;57335;52.288;6.056;2024-03-06T07:22:27;102181.06;;;4.49;100.00
69751;BME280;57335;52.288;6.056;2024-03-06T07:24:53;102179.41;;;4.48;100.00
69751;BME280;57335;52.288;6.056;2024-03-06T07:27:21;102181.88;;;4.50;100.00
69751;BME280;57335;52.288;6.056;2024-03-06T07:29:47;102188.44;;;4.54;100.00
69751;BME280;57335;52.288;6.056;2024-03-06T07:32:14;102190.09;;;4.55;100.00
69751;BME280;57335;52.288;6.056;2024-03-06T07:34:40;102182.69;;;4.50;100.00
69751;BME280;57335;52.288;6.056;2024-03-06T07:37:07;102196.66;;;4.49;100.00
69751;BME280;57335;52.288;6.056;2024-03-06T07:39:34;102188.56;;;4.52;100.00
69751;BME280;57335;52.288;6.056;2024-03-06T07:42:01;102187.91;;;4.60;100.00
69751;BME280;57335;52.288;6.056;2024-03-06T07:44:28;102193.66;;;4.64;100.00
69751;BME280;57335;52.288;6.056;2024-03-06T07:46:55;102197.38;;;4.71;100.00
69751;BME280;57335;52.288;6.056;2024-03-06T07:49:22;102198.06;;;4.83;100.00
69751;BME280;57335;52.288;6.056;2024-03-06T07:51:49;102209.56;;;4.90;100.00
69751;BME280;57335;52.288;6.056;2024-03-06T07:54:15;102205.47;;;4.97;100.00
69751;BME280;57335;52.288;6.056;2024-03-06T07:56:42;102197.28;;;5.02;100.00
69751;BME280;57335;52.288;6.056;2024-03-06T07:59:08;102204.41;;;5.09;100.00
69751;BME280;57335;52.288;6.056;2024-03-06T08:01:35;102207.97;;;5.18;100.00
69751;BME280;57335;52.288;6.056;2024-03-06T08:04:02;102204.69;;;5.26;100.00
69751;BME280;57335;52.288;6.056;2024-03-06T08:06:29;102209.72;;;5.37;100.00
69751;BME280;57335;52.288;6.056;2024-03-06T08:08:58;102209.59;;;5.38;100.00
69751;BME280;57335;52.288;6.056;2024-03-06T08:11:28;102215.91;;;5.46;100.00
69751;BME280;57335;52.288;6.056;2024-03-06T08:13:58;102220.41;;;5.53;100.00
69751;BME280;57335;52.288;6.056;2024-03-06T08:16:25;102216.69;;;5.56;100.00
69751;BME280;57335;52.288;6.056;2024-03-06T08:18:52;102210.81;;;5.64;100.00
69751;BME280;57335;52.288;6.056;2024-03-06T08:21:18;102220.53;;;5.71;100.00
69751;BME280;57335;52.288;6.056;2024-03-06T08:23:46;102224.72;;;5.82;100.00
69751;BME280;57335;52.288;6.056;2024-03-06T08:26:13;102228.25;;;5.91;100.00
69751;BME280;57335;52.288;6.056;2024-03-06T08:28:40;102229.38;;;5.98;100.00
69751;BME280;57335;52.288;6.056;2024-03-06T08:31:07;102228.69;;;6.06;100.00
69751;BME280;57335;52.288;6.056;2024-03-06T08:33:34;102231.53;;;6.12;100.00
69751;BME280;57335;52.288;6.056;2024-03-06T08:36:01;102230.59;;;6.13;100.00
69751;BME280;57335;52.288;6.056;2024-03-06T08:38:28;102237.16;;;6.17;100.00
69751;BME280;57335;52.288;6.056;2024-03-06T08:40:55;102243.31;;;6.16;100.00
69751;BME280;57335;52.288;6.056;2024-03-06T08:43:22;102244.66;;;6.21;100.00
69751;BME280;57335;52.288;6.056;2024-03-06T08:45:48;102257.09;;;6.27;100.00
69751;BME280;57335;52.288;6.056;2024-03-06T08:48:15;102250.06;;;6.37;100.00
69751;BME280;57335;52.288;6.056;2024-03-06T08:50:41;102248.31;;;6.37;100.00
69751;BME280;57335;52.288;6.056;2024-03-06T08:53:08;102255.25;;;6.47;100.00
69751;BME280;57335;52.288;6.056;2024-03-06T08:55:36;102251.53;;;6.49;100.00
69751;BME280;57335;52.288;6.056;2024-03-06T08:58:03;102255.34;;;6.55;100.00
69751;BME280;57335;52.288;6.056;2024-03-06T09:00:30;102260.13;;;6.59;100.00
69751;BME280;57335;52.288;6.056;2024-03-06T09:02:56;102271.75;;;6.65;100.00
69751;BME280;57335;52.288;6.056;2024-03-06T09:05:23;102272.72;;;6.64;100.00
69751;BME280;57335;52.288;6.056;2024-03-06T09:07:50;102279.41;;;6.67;100.00
69751;BME280;57335;52.288;6.056;2024-03-06T09:10:16;102281.88;;;6.68;100.00
69751;BME280;57335;52.288;6.056;2024-03-06T09:12:45;102287.06;;;6.78;100.00
69751;BME280;57335;52.288;6.056;2024-03-06T09:15:14;102293.31;;;6.85;100.00
69751;BME280;57335;52.288;6.056;2024-03-06T09:17:41;102292.72;;;6.91;100.00
69751;BME280;57335;52.288;6.056;2024-03-06T09:20:09;102301.22;;;6.93;100.00
69751;BME280;57335;52.288;6.056;2024-03-06T09:22:42;102303.41;;;6.98;100.00
69751;BME280;57335;52.288;6.056;2024-03-06T09:25:09;102309.28;;;7.00;100.00
69751;BME280;57335;52.288;6.056;2024-03-06T09:27:37;102312.13;;;7.07;100.00
69751;BME280;57335;52.288;6.056;2024-03-06T09:30:04;102319.00;;;7.08;100.00
69751;BME280;57335;52.288;6.056;2024-03-06T09:32:31;102319.94;;;7.07;100.00
69751;BME280;57335;52.288;6.056;2024-03-06T09:34:59;102325.59;;;7.02;100.00
69751;BME280;57335;52.288;6.056;2024-03-06T09:37:26;102331.84;;;7.09;100.00
69751;BME280;57335;52.288;6.056;2024-03-06T09:39:52;102328.00;;;7.13;100.00
69751;BME280;57335;52.288;6.056;2024-03-06T09:42:19;102334.41;;;7.19;100.00
69751;BME280;57335;52.288;6.056;2024-03-06T09:44:46;102338.97;;;7.17;100.00
69751;BME280;57335;52.288;6.056;2024-03-06T09:47:19;102335.03;;;7.31;100.00
69751;BME280;57335;52.288;6.056;2024-03-06T09:49:51;102338.53;;;7.39;100.00
69751;BME280;57335;52.288;6.056;2024-03-06T09:52:21;102338.19;;;7.52;100.00
69751;BME280;57335;52.288;6.056;2024-03-06T09:54:54;102336.25;;;7.54;100.00
69751;BME280;57335;52.288;6.056;2024-03-06T09:57:22;102346.09;;;7.61;100.00
69751;BME280;57335;52.288;6.056;2024-03-06T09:59:48;102354.38;;;7.74;100.00
69751;BME280;57335;52.288;6.056;2024-03-06T10:02:31;102353.03;;;7.88;100.00
69751;BME280;57335;52.288;6.056;2024-03-06T10:05:01;102350.00;;;8.01;100.00
69751;BME280;57335;52.288;6.056;2024-03-06T10:07:28;102349.47;;;8.15;100.00
69751;BME280;57335;52.288;6.056;2024-03-06T10:09:55;102352.94;;;8.24;100.00
69751;BME280;57335;52.288;6.056;2024-03-06T10:12:22;102349.28;;;8.34;100.00
69751;BME280;57335;52.288;6.056;2024-03-06T10:14:52;102352.78;;;8.43;100.00
69751;BME280;57335;52.288;6.056;2024-03-06T10:17:20;102349.69;;;8.48;100.00
69751;BME280;57335;52.288;6.056;2024-03-06T10:19:50;102354.47;;;8.52;100.00
69751;BME280;57335;52.288;6.056;2024-03-06T10:22:19;102356.47;;;8.58;100.00
69751;BME280;57335;52.288;6.056;2024-03-06T10:24:47;102354.19;;;8.64;100.00
69751;BME280;57335;52.288;6.056;2024-03-06T10:27:15;102358.94;;;8.60;100.00
69751;BME280;57335;52.288;6.056;2024-03-06T10:29:43;102363.03;;;8.63;100.00
69751;BME280;57335;52.288;6.056;2024-03-06T10:32:10;102363.66;;;8.56;100.00
69751;BME280;57335;52.288;6.056;2024-03-06T10:34:44;102370.19;;;8.61;100.00
69751;BME280;57335;52.288;6.056;2024-03-06T10:37:11;102363.56;;;8.74;100.00
69751;BME280;57335;52.288;6.056;2024-03-06T10:39:42;102367.22;;;8.90;100.00
69751;BME280;57335;52.288;6.056;2024-03-06T10:42:10;102366.09;;;8.92;100.00
69751;BME280;57335;52.288;6.056;2024-03-06T10:44:49;102362.16;;;8.88;100.00
69751;BME280;57335;52.288;6.056;2024-03-06T10:47:18;102367.59;;;9.03;100.00
69751;BME280;57335;52.288;6.056;2024-03-06T10:49:45;102360.97;;;9.25;100.00
69751;BME280;57335;52.288;6.056;2024-03-06T10:52:13;102360.22;;;9.49;100.00
69751;BME280;57335;52.288;6.056;2024-03-06T10:54:43;102354.53;;;9.78;100.00
69751;BME280;57335;52.288;6.056;2024-03-06T10:57:12;102353.34;;;10.06;100.00
69751;BME280;57335;52.288;6.056;2024-03-06T10:59:40;102355.50;;;10.35;100.00
69751;BME280;57335;52.288;6.056;2024-03-06T11:02:09;102351.81;;;10.61;100.00
69751;BME280;57335;52.288;6.056;2024-03-06T11:04:37;102359.88;;;10.90;100.00
69751;BME280;57335;52.288;6.056;2024-03-06T11:07:08;102359.47;;;11.10;100.00
69751;BME280;57335;52.288;6.056;2024-03-06T11:09:38;102358.97;;;11.14;100.00
69751;BME280;57335;52.288;6.056;2024-03-06T11:12:06;102359.78;;;11.15;100.00
69751;BME280;57335;52.288;6.056;2024-03-06T11:14:37;102360.97;;;11.04;100.00
69751;BME280;57335;52.288;6.056;2024-03-06T11:17:10;102363.56;;;11.12;100.00
69751;BME280;57335;52.288;6.056;2024-03-06T11:28:18;102372.81;;;11.54;100.00
69751;BME280;57335;52.288;6.056;2024-03-06T11:30:46;102366.53;;;11.64;100.00
69751;BME280;57335;52.288;6.056;2024-03-06T11:33:16;102366.56;;;11.78;100.00
69751;BME280;57335;52.288;6.056;2024-03-06T11:39:07;102378.72;;;11.80;100.00
69751;BME280;57335;52.288;6.056;2024-03-06T11:44:14;102379.56;;;12.03;100.00
69751;BME280;57335;52.288;6.056;2024-03-06T11:46:43;102375.78;;;12.21;100.00
69751;BME280;57335;52.288;6.056;2024-03-06T11:49:20;102377.25;;;12.38;100.00
69751;BME280;57335;52.288;6.056;2024-03-06T11:51:47;102374.44;;;12.54;99.69
69751;BME280;57335;52.288;6.056;2024-03-06T11:54:15;102376.38;;;12.75;100.00
69751;BME280;57335;52.288;6.056;2024-03-06T11:56:44;102371.34;;;12.95;99.73
69751;BME280;57335;52.288;6.056;2024-03-06T11:59:12;102367.34;;;13.00;93.08
69751;BME280;57335;52.288;6.056;2024-03-06T12:01:40;102375.72;;;13.03;94.13
69751;BME280;57335;52.288;6.056;2024-03-06T12:04:07;102384.66;;;13.09;94.71
69751;BME280;57335;52.288;6.056;2024-03-06T12:06:35;102382.75;;;13.17;93.39
69751;BME280;57335;52.288;6.056;2024-03-06T12:09:02;102384.38;;;13.33;93.62
69751;BME280;57335;52.288;6.056;2024-03-06T12:11:29;102382.69;;;13.47;94.06
69751;BME280;57335;52.288;6.056;2024-03-06T12:13:57;102391.34;;;13.41;89.38
69751;BME280;57335;52.288;6.056;2024-03-06T12:16:24;102388.38;;;13.29;90.12
69751;BME280;57335;52.288;6.056;2024-03-06T12:18:57;102387.13;;;13.10;86.65
69751;BME280;57335;52.288;6.056;2024-03-06T12:21:30;102389.56;;;13.12;84.56
69751;BME280;57335;52.288;6.056;2024-03-06T12:26:30;102388.63;;;13.34;85.50
69751;BME280;57335;52.288;6.056;2024-03-06T12:29:05;102391.53;;;13.40;84.99
69751;BME280;57335;52.288;6.056;2024-03-06T12:31:33;102386.72;;;13.43;85.15
69751;BME280;57335;52.288;6.056;2024-03-06T12:34:00;102394.63;;;13.43;83.84
69751;BME280;57335;52.288;6.056;2024-03-06T12:36:31;102391.41;;;13.48;87.72
69751;BME280;57335;52.288;6.056;2024-03-06T12:39:02;102391.91;;;13.58;83.09
69751;BME280;57335;52.288;6.056;2024-03-06T12:41:29;102395.69;;;13.70;85.02
69751;BME280;57335;52.288;6.056;2024-03-06T12:43:56;102391.56;;;13.61;82.84
69751;BME280;57335;52.288;6.056;2024-03-06T12:46:23;102391.78;;;13.45;82.77
69751;BME280;57335;52.288;6.056;2024-03-06T12:48:50;102389.41;;;13.50;82.76
69751;BME280;57335;52.288;6.056;2024-03-06T12:51:17;102395.47;;;13.50;84.79
69751;BME280;57335;52.288;6.056;2024-03-06T12:53:44;102388.16;;;13.46;86.67
69751;BME280;57335;52.288;6.056;2024-03-06T12:56:11;102393.78;;;13.43;83.98
69751;BME280;57335;52.288;6.056;2024-03-06T12:58:38;102395.78;;;13.41;85.82
69751;BME280;57335;52.288;6.056;2024-03-06T13:01:04;102390.09;;;13.37;87.79
69751;BME280;57335;52.288;6.056;2024-03-06T13:03:32;102384.50;;;13.47;88.45
69751;BME280;57335;52.288;6.056;2024-03-06T13:05:59;102380.56;;;13.57;86.47
69751;BME280;57335;52.288;6.056;2024-03-06T13:08:26;102380.38;;;13.59;83.70
69751;BME280;57335;52.288;6.056;2024-03-06T13:10:53;102383.66;;;13.61;82.63
69751;BME280;57335;52.288;6.056;2024-03-06T13:13:19;102382.28;;;13.65;80.85
69751;BME280;57335;52.288;6.056;2024-03-06T13:15:47;102386.38;;;13.74;82.60